createdAt,value
2022-11-05T00:00:38.449Z,13.20
2022-11-05T00:03:24.071Z,13.20
2022-11-05T00:06:12.203Z,13.23
2022-11-05T00:08:59.523Z,13.25
2022-11-05T00:11:46.728Z,13.27
2022-11-05T00:14:32.477Z,13.29
2022-11-05T00:16:59.618Z,13.27
2022-11-05T00:19:26.469Z,13.25
2022-11-05T00:22:12.232Z,13.22
2022-11-05T00:24:57.752Z,13.21
2022-11-05T00:27:24.757Z,13.15
2022-11-05T00:29:52.145Z,13.12
2022-11-05T00:32:19.152Z,13.13
2022-11-05T00:34:46.072Z,13.08
2022-11-05T00:37:13.085Z,13.03
2022-11-05T00:39:40.073Z,13.00
2022-11-05T00:42:25.437Z,12.98
2022-11-05T00:45:01.221Z,12.96
2022-11-05T00:47:47.490Z,12.95
2022-11-05T00:50:15.335Z,12.94
2022-11-05T00:52:57.753Z,12.93
2022-11-05T00:55:35.625Z,12.92
2022-11-05T00:58:04.307Z,12.90
2022-11-05T01:00:33.728Z,12.91
2022-11-05T01:03:02.984Z,12.91
2022-11-05T01:05:31.633Z,12.92
2022-11-05T01:07:58.750Z,12.93
2022-11-05T01:10:26.612Z,12.93
2022-11-05T01:12:53.900Z,12.90
2022-11-05T01:15:21.318Z,12.84
2022-11-05T01:17:48.471Z,12.79
2022-11-05T01:20:16.596Z,12.72
2022-11-05T01:22:43.584Z,12.68
2022-11-05T01:25:10.984Z,12.67
2022-11-05T01:27:38.688Z,12.66
2022-11-05T01:30:07.748Z,12.65
2022-11-05T01:32:36.350Z,12.61
2022-11-05T01:35:05.761Z,12.62
2022-11-05T01:37:32.779Z,12.60
2022-11-05T01:39:59.730Z,12.51
2022-11-05T01:42:28.208Z,12.29
2022-11-05T01:45:07.027Z,12.22
2022-11-05T01:47:57.948Z,12.16
2022-11-05T01:50:52.069Z,12.13
2022-11-05T01:53:26.140Z,12.09
2022-11-05T01:56:02.261Z,12.10
2022-11-05T01:58:34.813Z,12.01
2022-11-05T02:01:02.314Z,11.98
2022-11-05T02:03:30.700Z,11.98
2022-11-05T02:06:01.135Z,11.98
2022-11-05T02:08:56.257Z,12.00
2022-11-05T02:11:23.531Z,11.98
2022-11-05T02:13:51.305Z,12.04
2022-11-05T02:16:46.744Z,12.14
2022-11-05T02:20:03.092Z,12.27
2022-11-05T02:22:35.937Z,12.33
2022-11-05T02:25:21.436Z,12.35
2022-11-05T02:28:22.449Z,12.35
2022-11-05T02:31:15.545Z,12.32
2022-11-05T02:33:47.799Z,12.34
2022-11-05T02:36:31.531Z,12.32
2022-11-05T02:38:58.446Z,12.31
2022-11-05T02:41:35.804Z,12.31
2022-11-05T02:44:14.593Z,12.30
2022-11-05T02:47:18.186Z,12.38
2022-11-05T02:50:06.934Z,12.46
2022-11-05T02:52:45.320Z,12.44
2022-11-05T02:55:23.128Z,12.46
2022-11-05T02:57:50.115Z,12.47
2022-11-05T03:00:49.724Z,12.52
2022-11-05T03:03:34.891Z,12.51
2022-11-05T03:06:31.374Z,12.52
2022-11-05T03:09:01.169Z,12.53
2022-11-05T03:11:31.307Z,12.55
2022-11-05T03:14:36.421Z,12.54
2022-11-05T03:17:26.256Z,12.54
2022-11-05T03:20:12.639Z,12.36
2022-11-05T03:22:47.694Z,12.22
2022-11-05T03:25:21.506Z,12.09
2022-11-05T03:27:54.782Z,11.96
2022-11-05T03:30:22.091Z,11.84
2022-11-05T03:32:57.102Z,11.67
2022-11-05T03:35:30.937Z,11.63
2022-11-05T03:38:05.589Z,11.59
2022-11-05T03:40:35.454Z,11.46
2022-11-05T03:43:06.672Z,11.50
2022-11-05T03:45:38.753Z,11.40
2022-11-05T03:48:10.481Z,11.37
2022-11-05T03:50:47.098Z,11.33
2022-11-05T03:53:18.614Z,11.28
2022-11-05T03:56:00.010Z,11.26
2022-11-05T03:58:28.895Z,11.20
2022-11-05T04:00:55.925Z,11.15
2022-11-05T04:03:22.865Z,11.14
2022-11-05T04:06:11.688Z,11.17
2022-11-05T04:08:59.541Z,11.18
2022-11-05T04:11:44.858Z,11.22
2022-11-05T04:14:11.787Z,11.23
2022-11-05T04:16:57.426Z,11.28
2022-11-05T04:19:42.853Z,11.34
2022-11-05T04:22:28.498Z,11.41
2022-11-05T04:24:55.479Z,11.43
2022-11-05T04:27:22.404Z,11.43
2022-11-05T04:30:07.749Z,11.49
2022-11-05T04:32:34.698Z,11.54
2022-11-05T04:35:01.642Z,11.53
2022-11-05T04:37:28.571Z,11.55
2022-11-05T04:39:55.585Z,11.59
2022-11-05T04:42:22.460Z,11.64
2022-11-05T04:44:49.414Z,11.71
2022-11-05T04:47:16.348Z,11.75
2022-11-05T04:49:43.243Z,11.80
2022-11-05T04:52:10.125Z,11.85
2022-11-05T04:54:37.015Z,11.88
2022-11-05T04:57:04.036Z,11.88
2022-11-05T04:59:30.988Z,11.89
2022-11-05T05:01:57.984Z,11.89
2022-11-05T05:04:24.974Z,11.96
2022-11-05T05:06:51.956Z,12.04
2022-11-05T05:09:18.856Z,12.03
2022-11-05T05:11:45.749Z,12.06
2022-11-05T05:14:12.749Z,12.00
2022-11-05T05:16:39.673Z,12.03
2022-11-05T05:19:06.570Z,11.98
2022-11-05T05:21:39.510Z,12.04
2022-11-05T05:24:18.863Z,12.07
2022-11-05T05:26:48.311Z,12.06
2022-11-05T05:29:15.665Z,12.05
2022-11-05T05:31:42.924Z,12.02
2022-11-05T05:34:14.500Z,12.09
2022-11-05T05:36:41.499Z,12.08
2022-11-05T05:39:10.958Z,12.11
2022-11-05T05:41:38.264Z,12.08
2022-11-05T05:44:06.344Z,12.15
2022-11-05T05:46:33.554Z,12.19
2022-11-05T05:49:00.599Z,12.22
2022-11-05T05:51:27.587Z,12.17
2022-11-05T05:53:55.026Z,12.10
2022-11-05T05:56:21.939Z,12.03
2022-11-05T05:58:48.960Z,11.92
2022-11-05T06:01:19.765Z,11.90
2022-11-05T06:03:48.602Z,11.82
2022-11-05T06:06:19.838Z,11.85
2022-11-05T06:08:47.722Z,11.93
2022-11-05T06:11:15.288Z,11.96
2022-11-05T06:13:42.352Z,12.00
2022-11-05T06:16:10.476Z,12.06
2022-11-05T06:18:37.974Z,12.07
2022-11-05T06:21:10.037Z,12.06
2022-11-05T06:23:38.995Z,12.13
2022-11-05T06:26:09.024Z,12.20
2022-11-05T06:28:36.158Z,12.26
2022-11-05T06:31:04.113Z,12.31
2022-11-05T06:33:31.156Z,12.39
2022-11-05T06:36:02.834Z,12.44
2022-11-05T06:38:33.268Z,12.53
2022-11-05T06:41:04.586Z,12.56
2022-11-05T06:43:36.089Z,12.56
2022-11-05T06:46:03.237Z,12.67
2022-11-05T06:48:30.246Z,12.79
2022-11-05T06:50:59.232Z,13.03
2022-11-05T06:54:00.276Z,13.40
2022-11-05T06:56:27.073Z,13.61
2022-11-05T06:58:53.856Z,13.71
2022-11-05T07:01:20.817Z,13.81
2022-11-05T07:03:49.082Z,13.84
2022-11-05T07:06:16.143Z,13.83
2022-11-05T07:08:42.935Z,13.92
2022-11-05T07:11:09.734Z,14.01
2022-11-05T07:13:36.511Z,14.05
2022-11-05T07:16:03.439Z,14.20
2022-11-05T07:18:30.320Z,14.39
2022-11-05T07:20:59.440Z,14.53
2022-11-05T07:23:26.550Z,14.66
2022-11-05T07:25:53.397Z,14.79
2022-11-05T07:28:20.226Z,14.89
2022-11-05T07:30:48.272Z,14.84
2022-11-05T07:33:15.814Z,14.77
2022-11-05T07:35:43.666Z,14.76
2022-11-05T07:38:11.242Z,14.78
2022-11-05T07:40:38.536Z,14.70
2022-11-05T07:43:05.442Z,14.75
2022-11-05T07:45:32.332Z,14.75
2022-11-05T07:48:01.620Z,14.84
2022-11-05T07:50:32.131Z,14.92
2022-11-05T07:53:07.234Z,15.00
2022-11-05T07:55:35.525Z,15.10
2022-11-05T07:58:02.278Z,15.17
2022-11-05T08:00:31.262Z,15.27
2022-11-05T08:03:10.712Z,15.33
2022-11-05T08:05:40.995Z,15.33
2022-11-05T08:08:09.375Z,15.31
2022-11-05T08:10:37.683Z,15.36
2022-11-05T08:13:06.339Z,15.38
2022-11-05T08:15:34.590Z,15.39
2022-11-05T08:18:04.495Z,15.43
2022-11-05T08:20:32.466Z,15.27
2022-11-05T08:22:59.781Z,15.23
2022-11-05T08:25:27.204Z,15.28
2022-11-05T08:28:22.496Z,15.41
2022-11-05T08:30:51.365Z,15.52
2022-11-05T08:33:18.418Z,15.62
2022-11-05T08:35:46.544Z,15.63
2022-11-05T08:38:17.167Z,15.67
2022-11-05T08:40:53.735Z,15.65
2022-11-05T08:43:21.486Z,15.64
2022-11-05T08:45:48.500Z,15.67
2022-11-05T08:48:18.735Z,15.80
2022-11-05T08:50:47.662Z,16.00
2022-11-05T08:53:16.266Z,16.13
2022-11-05T08:55:45.255Z,16.25
2022-11-05T08:58:17.500Z,16.26
2022-11-05T09:00:48.075Z,16.27
2022-11-05T09:03:15.807Z,16.29
2022-11-05T09:05:43.300Z,16.33
2022-11-05T09:08:13.627Z,16.37
2022-11-05T09:10:42.105Z,16.49
2022-11-05T09:13:16.652Z,16.49
2022-11-05T09:15:48.101Z,16.61
2022-11-05T09:18:15.818Z,16.71
2022-11-05T09:20:42.789Z,16.80
2022-11-05T09:23:11.969Z,16.91
2022-11-05T09:25:39.187Z,17.00
2022-11-05T09:28:17.626Z,17.05
2022-11-05T09:30:47.611Z,17.17
2022-11-05T09:33:14.803Z,17.32
2022-11-05T09:35:43.211Z,17.49
2022-11-05T09:38:10.034Z,17.61
2022-11-05T09:40:41.757Z,17.69
2022-11-05T09:43:17.145Z,17.69
2022-11-05T09:45:46.537Z,17.79
2022-11-05T09:48:18.264Z,17.98
2022-11-05T09:50:46.622Z,18.19
2022-11-05T09:53:16.581Z,18.30
2022-11-05T09:55:47.415Z,18.31
2022-11-05T09:58:52.078Z,18.39
2022-11-05T10:01:31.785Z,18.53
2022-11-05T10:04:01.976Z,18.64
2022-11-05T10:06:29.446Z,18.76
2022-11-05T10:09:12.735Z,18.77
2022-11-05T10:11:47.924Z,18.83
2022-11-05T10:14:24.875Z,18.88
2022-11-05T10:16:59.205Z,19.02
2022-11-05T10:19:31.201Z,19.15
2022-11-05T10:22:20.994Z,19.34
2022-11-05T10:24:51.621Z,19.30
2022-11-05T10:27:38.925Z,19.27
2022-11-05T10:30:06.289Z,19.17
2022-11-05T10:32:40.617Z,19.34
2022-11-05T10:35:11.752Z,19.63
2022-11-05T10:37:41.048Z,19.91
2022-11-05T10:40:15.953Z,20.15
2022-11-05T10:42:51.896Z,20.39
2022-11-05T10:45:44.895Z,20.59
2022-11-05T10:48:20.701Z,20.65
2022-11-05T10:50:49.031Z,20.86
2022-11-05T10:53:24.097Z,21.02
2022-11-05T10:55:52.287Z,21.30
2022-11-05T10:58:22.680Z,21.53
2022-11-05T11:00:52.385Z,21.57
2022-11-05T11:03:46.189Z,21.81
2022-11-05T11:06:26.835Z,22.05
2022-11-05T11:09:00.111Z,22.14
2022-11-05T11:11:35.755Z,22.29
2022-11-05T11:14:02.580Z,22.30
2022-11-05T11:16:35.748Z,22.43
2022-11-05T11:19:03.355Z,22.58
2022-11-05T11:21:32.468Z,22.78
2022-11-05T11:24:06.667Z,22.83
2022-11-05T11:26:37.220Z,22.67
2022-11-05T11:29:28.624Z,22.78
2022-11-05T11:31:57.340Z,22.84
2022-11-05T11:34:35.574Z,22.89
2022-11-05T11:37:12.837Z,23.09
2022-11-05T11:39:47.352Z,23.31
2022-11-05T11:42:27.469Z,23.31
2022-11-05T11:44:54.539Z,23.25
2022-11-05T11:47:22.631Z,23.39
2022-11-05T11:49:54.831Z,23.57
2022-11-05T11:52:36.879Z,23.74
2022-11-05T11:55:12.922Z,23.85
2022-11-05T11:58:04.843Z,23.64
2022-11-05T12:00:36.864Z,23.92
2022-11-05T12:03:14.159Z,24.26
2022-11-05T12:05:46.748Z,24.58
2022-11-05T12:08:31.877Z,24.92
2022-11-05T12:11:29.570Z,25.23
2022-11-05T12:14:02.296Z,25.22
2022-11-05T12:16:42.174Z,25.37
2022-11-05T12:19:24.216Z,25.68
2022-11-05T12:22:03.130Z,25.89
2022-11-05T12:24:45.240Z,25.91
2022-11-05T12:27:21.067Z,25.87
2022-11-05T12:30:05.738Z,25.64
2022-11-05T12:32:53.335Z,25.44
2022-11-05T12:35:35.236Z,25.04
2022-11-05T12:38:13.783Z,24.72
2022-11-05T12:40:59.028Z,24.48
2022-11-05T12:43:38.024Z,24.45
2022-11-05T12:46:10.863Z,24.50
2022-11-05T12:49:07.611Z,24.61
2022-11-05T12:52:25.402Z,24.67
2022-11-05T12:54:59.813Z,24.45
2022-11-05T12:57:29.876Z,24.30
2022-11-05T13:00:06.809Z,24.10
2022-11-05T13:02:40.802Z,23.99
2022-11-05T13:05:21.846Z,23.66
2022-11-05T13:08:00.419Z,23.38
2022-11-05T13:10:57.347Z,22.98
2022-11-05T13:13:27.038Z,22.52
2022-11-05T13:15:59.315Z,22.27
2022-11-05T13:18:31.743Z,22.03
2022-11-05T13:21:02.278Z,21.74
2022-11-05T13:23:35.750Z,21.63
2022-11-05T13:26:13.410Z,21.35
2022-11-05T13:28:43.950Z,21.06
2022-11-05T13:31:17.542Z,20.85
2022-11-05T13:33:48.348Z,20.81
2022-11-05T13:36:46.007Z,20.68
2022-11-05T13:39:31.994Z,20.55
2022-11-05T13:42:10.108Z,20.46
2022-11-05T13:45:10.726Z,20.39
2022-11-05T13:47:49.739Z,20.28
2022-11-05T13:50:31.470Z,20.22
2022-11-05T13:53:02.557Z,20.09
2022-11-05T13:55:38.207Z,20.08
2022-11-05T13:58:14.057Z,20.06
2022-11-05T14:01:01.288Z,20.01
2022-11-05T14:03:28.734Z,19.90
2022-11-05T14:06:08.226Z,19.85
2022-11-05T14:08:45.353Z,19.78
2022-11-05T14:11:25.278Z,19.67
2022-11-05T14:13:57.163Z,19.62
2022-11-05T14:16:26.808Z,19.52
2022-11-05T14:19:27.056Z,19.54
2022-11-05T14:21:55.654Z,19.42
2022-11-05T14:24:38.934Z,19.38
2022-11-05T14:27:05.710Z,19.31
2022-11-05T14:29:41.598Z,19.30
2022-11-05T14:32:17.284Z,19.21
2022-11-05T14:35:04.124Z,19.16
2022-11-05T14:37:39.568Z,19.13
2022-11-05T14:40:21.497Z,19.05
2022-11-05T14:43:17.494Z,18.97
2022-11-05T14:46:06.212Z,18.90
2022-11-05T14:48:41.172Z,18.79
2022-11-05T14:51:23.366Z,18.70
2022-11-05T14:53:50.493Z,18.71
2022-11-05T14:56:19.476Z,18.71
2022-11-05T14:58:46.796Z,18.66
2022-11-05T15:01:13.633Z,18.62
2022-11-05T15:03:45.799Z,18.63
2022-11-05T15:06:25.008Z,18.59
2022-11-05T15:08:59.005Z,18.51
2022-11-05T15:11:33.665Z,18.44
2022-11-05T15:14:24.348Z,18.46
2022-11-05T15:17:09.472Z,18.41
2022-11-05T15:19:39.036Z,18.35
2022-11-05T15:22:16.293Z,18.33
2022-11-05T15:24:43.156Z,18.29
2022-11-05T15:27:25.418Z,18.29
2022-11-05T15:29:52.430Z,18.23
2022-11-05T15:32:25.404Z,18.20
2022-11-05T15:34:54.617Z,18.15
2022-11-05T15:37:26.637Z,18.13
2022-11-05T15:39:55.215Z,18.04
2022-11-05T15:42:24.746Z,18.02
2022-11-05T15:44:53.887Z,17.99
2022-11-05T15:47:22.579Z,17.96
2022-11-05T15:49:58.490Z,17.91
2022-11-05T15:52:36.648Z,17.85
2022-11-05T15:55:24.926Z,17.80
2022-11-05T15:57:59.309Z,17.81
2022-11-05T16:00:32.127Z,17.76
2022-11-05T16:03:03.195Z,17.75
2022-11-05T16:05:33.636Z,17.75
2022-11-05T16:08:02.015Z,17.73
2022-11-05T16:10:31.567Z,17.68
2022-11-05T16:13:18.339Z,17.65
2022-11-05T16:15:54.831Z,17.62
2022-11-05T16:18:24.875Z,17.59
2022-11-05T16:21:17.701Z,17.54
2022-11-05T16:23:57.579Z,17.51
2022-11-05T16:29:33.870Z,17.40
2022-11-05T16:32:04.285Z,17.33
2022-11-05T16:34:39.703Z,17.33
2022-11-05T16:37:11.114Z,17.29
2022-11-05T16:39:38.464Z,17.26
2022-11-05T16:42:26.147Z,17.02
2022-11-05T16:44:55.281Z,16.54
2022-11-05T16:47:22.995Z,16.51
2022-11-05T16:49:50.609Z,16.44
2022-11-05T16:52:18.276Z,16.59
2022-11-05T16:54:45.463Z,16.75
2022-11-05T16:57:38.753Z,16.90
2022-11-05T17:00:06.763Z,16.94
2022-11-05T17:02:33.675Z,17.02
2022-11-05T17:05:00.629Z,17.09
2022-11-05T17:07:27.424Z,17.10
2022-11-05T17:09:56.048Z,17.13
2022-11-05T17:12:22.883Z,17.14
2022-11-05T17:14:49.791Z,17.20
2022-11-05T17:17:16.657Z,17.23
2022-11-05T17:19:43.804Z,17.25
2022-11-05T17:22:10.649Z,17.24
2022-11-05T17:24:38.956Z,17.31
2022-11-05T17:27:05.869Z,17.29
2022-11-05T17:29:32.690Z,17.30
2022-11-05T17:31:59.598Z,17.28
2022-11-05T17:34:26.602Z,17.26
2022-11-05T17:36:53.669Z,17.23
2022-11-05T17:39:20.677Z,17.20
2022-11-05T17:41:47.969Z,17.19
2022-11-05T17:44:14.954Z,17.17
2022-11-05T17:46:41.796Z,17.19
2022-11-05T17:49:08.686Z,17.18
2022-11-05T17:51:35.528Z,17.20
2022-11-05T17:54:02.449Z,17.16
2022-11-05T17:56:34.925Z,17.17
2022-11-05T17:59:03.608Z,17.15
2022-11-05T18:01:33.575Z,17.15
2022-11-05T18:04:07.142Z,17.13
2022-11-05T18:06:37.296Z,17.11
2022-11-05T18:09:06.248Z,17.10
2022-11-05T18:11:34.747Z,17.08
2022-11-05T18:14:02.084Z,17.04
2022-11-05T18:16:28.923Z,17.03
2022-11-05T18:18:56.124Z,16.98
2022-11-05T18:21:23.136Z,16.95
2022-11-05T18:23:49.966Z,16.97
2022-11-05T18:26:17.558Z,16.94
2022-11-05T18:28:45.364Z,16.92
2022-11-05T18:31:18.044Z,16.92
2022-11-05T18:33:45.529Z,16.93
2022-11-05T18:36:24.092Z,16.93
2022-11-05T18:38:51.440Z,16.87
2022-11-05T18:41:19.199Z,16.88
2022-11-05T18:43:47.083Z,16.82
2022-11-05T18:46:35.950Z,16.82
2022-11-05T18:49:01.830Z,16.77
2022-11-05T18:51:28.940Z,16.46
2022-11-05T18:53:56.485Z,16.01
2022-11-05T18:56:23.889Z,16.03
2022-11-05T18:59:14.623Z,15.94
2022-11-05T19:01:40.973Z,16.17
2022-11-05T19:04:07.941Z,16.37
2022-11-05T19:06:35.721Z,16.51
2022-11-05T19:09:04.457Z,16.60
2022-11-05T19:11:31.356Z,16.68
2022-11-05T19:13:58.507Z,16.75
2022-11-05T19:16:27.545Z,16.82
2022-11-05T19:18:57.497Z,16.88
2022-11-05T19:21:26.251Z,16.89
2022-11-05T19:23:53.610Z,16.91
2022-11-05T19:26:28.197Z,16.85
2022-11-05T19:28:57.957Z,16.91
2022-11-05T19:31:25.045Z,16.93
2022-11-05T19:33:52.777Z,16.89
2022-11-05T19:36:21.210Z,16.94
2022-11-05T19:38:52.482Z,16.96
2022-11-05T19:41:19.514Z,16.95
2022-11-05T19:43:46.864Z,16.99
2022-11-05T19:46:16.642Z,17.03
2022-11-05T19:48:44.311Z,17.02
2022-11-05T19:51:15.436Z,17.07
2022-11-05T19:53:42.989Z,17.02
2022-11-05T19:56:21.769Z,17.12
2022-11-05T19:58:49.424Z,17.11
2022-11-05T20:01:18.285Z,17.13
2022-11-05T20:03:45.401Z,17.09
2022-11-05T20:06:25.791Z,17.08
2022-11-05T20:09:20.059Z,17.01
2022-11-05T20:11:40.781Z,16.99
2022-11-05T20:14:10.058Z,17.01
2022-11-05T20:16:39.118Z,17.08
2022-11-05T20:19:08.947Z,17.16
2022-11-05T20:21:35.913Z,17.16
2022-11-05T20:24:02.814Z,17.25
2022-11-05T20:26:30.159Z,17.26
2022-11-05T20:28:57.254Z,17.31
2022-11-05T20:31:24.301Z,17.30
2022-11-05T20:33:53.895Z,17.31
2022-11-05T20:36:24.894Z,17.33
2022-11-05T20:38:55.390Z,17.31
2022-11-05T20:41:23.132Z,17.30
2022-11-05T20:43:50.540Z,17.30
2022-11-05T20:46:19.713Z,17.28
2022-11-05T20:48:46.798Z,17.25
2022-11-05T20:51:16.456Z,17.25
2022-11-05T20:53:44.456Z,17.26
2022-11-05T20:56:23.612Z,17.29
2022-11-05T20:58:50.907Z,17.25
2022-11-05T21:01:18.907Z,17.26
2022-11-05T21:03:47.012Z,17.23
2022-11-05T21:06:14.666Z,17.19
2022-11-05T21:08:41.767Z,17.21
2022-11-05T21:11:10.294Z,17.22
2022-11-05T21:13:37.212Z,17.18
2022-11-05T21:16:06.886Z,17.19
2022-11-05T21:18:36.442Z,17.18
2022-11-05T21:21:08.726Z,17.19
2022-11-05T21:23:35.699Z,17.01
2022-11-05T21:26:06.771Z,16.99
2022-11-05T21:28:34.482Z,16.87
2022-11-05T21:31:03.617Z,16.87
2022-11-05T21:33:30.926Z,16.81
2022-11-05T21:35:57.888Z,16.67
2022-11-05T21:38:25.507Z,16.51
2022-11-05T21:40:53.572Z,16.47
2022-11-05T21:43:20.455Z,16.47
2022-11-05T21:45:48.469Z,16.50
2022-11-05T21:48:15.788Z,16.51
2022-11-05T21:51:01.676Z,16.52
2022-11-05T21:53:47.151Z,16.49
2022-11-05T21:56:39.708Z,16.46
2022-11-05T21:59:25.063Z,16.41
2022-11-05T22:02:01.407Z,16.35
2022-11-05T22:04:36.987Z,16.37
2022-11-05T22:07:04.986Z,16.35
2022-11-05T22:09:32.205Z,16.34
2022-11-05T22:11:59.889Z,16.36
2022-11-05T22:14:27.040Z,16.32
2022-11-05T22:16:54.563Z,16.31
2022-11-05T22:19:22.559Z,16.30
2022-11-05T22:21:49.603Z,16.28
2022-11-05T22:24:16.693Z,16.27
2022-11-05T22:26:44.607Z,16.22
2022-11-05T22:29:12.323Z,16.22
2022-11-05T22:31:39.477Z,16.14
2022-11-05T22:34:07.127Z,16.11
2022-11-05T22:36:35.090Z,16.09
2022-11-05T22:39:02.654Z,16.04
2022-11-05T22:41:30.064Z,15.98
2022-11-05T22:43:57.672Z,15.91
2022-11-05T22:46:26.380Z,15.83
2022-11-05T22:48:53.633Z,15.80
2022-11-05T22:51:29.192Z,15.80
2022-11-05T22:53:56.486Z,15.79
2022-11-05T22:56:26.000Z,15.79
2022-11-05T22:58:53.470Z,15.75
2022-11-05T23:01:22.073Z,15.70
2022-11-05T23:03:50.945Z,15.72
2022-11-05T23:06:40.725Z,15.73
2022-11-05T23:09:38.781Z,15.73
2022-11-05T23:12:07.716Z,15.60
2022-11-05T23:14:36.360Z,15.57
2022-11-05T23:17:22.074Z,15.54
2022-11-05T23:20:07.326Z,15.54
2022-11-05T23:22:52.734Z,15.54
2022-11-05T23:25:22.489Z,15.51
2022-11-05T23:27:51.845Z,15.47
2022-11-05T23:30:21.444Z,15.44
2022-11-05T23:32:49.144Z,15.46
2022-11-05T23:35:16.344Z,15.39
2022-11-05T23:38:02.069Z,15.37
2022-11-05T23:40:31.185Z,15.36
2022-11-05T23:43:16.593Z,15.34
2022-11-05T23:46:03.296Z,15.33
2022-11-05T23:48:35.030Z,15.30
2022-11-05T23:51:10.303Z,15.33
2022-11-05T23:53:40.671Z,15.33
2022-11-05T23:56:13.889Z,15.36
2022-11-05T23:58:41.790Z,15.40
